Time;durP1;ratioP1;P1;durP2;ratioP2;P2;SDS_P1;SDS_P2;PMS_P1;PMS_P2;Temp;Humidity;BMP_temperature;BMP_pressure;BME280_temperature;BME280_humidity;BME280_pressure;Samples;Min_cycle;Max_cycle;Signal;HPM_P1;HPM_P2
2023/08/31 03:47:47;;;;;;;2.05;1.95;;;;;;;15.15;100.00;99748.78;6154304;28;20102;-81
2023/08/31 03:51:01;;;;;;;4.18;2.67;;;;;;;15.11;100.00;99756.53;5234102;33;32833;-85
2023/08/31 03:54:05;;;;;;;3.90;2.55;;;;;;;15.12;100.00;99754.63;5213307;34;33036;-84
2023/08/31 03:57:08;;;;;;;5.10;2.85;;;;;;;15.12;100.00;99749.22;5213144;34;33977;-85
2023/08/31 04:00:12;;;;;;;2.55;2.35;;;;;;;15.11;100.00;99748.38;5223655;34;32911;-84
2023/08/31 04:03:15;;;;;;;2.90;2.60;;;;;;;15.08;100.00;99751.56;5237065;33;33493;-84
2023/08/31 04:06:19;;;;;;;3.17;2.75;;;;;;;15.10;100.00;99760.31;5224771;34;33129;-84
2023/08/31 04:09:21;;;;;;;2.95;2.60;;;;;;;15.18;100.00;99746.47;5224450;34;33004;-84
2023/08/31 04:12:25;;;;;;;3.28;2.47;;;;;;;15.17;100.00;99755.63;5224425;34;34123;-84
2023/08/31 04:15:27;;;;;;;4.22;2.50;;;;;;;15.18;100.00;99760.03;5224135;34;33250;-84
2023/08/31 04:18:31;;;;;;;2.78;2.58;;;;;;;15.14;100.00;99761.50;5213852;34;33029;-84
2023/08/31 04:21:33;;;;;;;3.05;2.25;;;;;;;15.23;100.00;99769.34;5225491;34;33308;-84
2023/08/31 04:24:36;;;;;;;2.83;2.62;;;;;;;15.20;100.00;99765.22;5225524;34;34032;-84
2023/08/31 04:27:40;;;;;;;3.03;2.55;;;;;;;15.21;100.00;99769.59;5224823;34;33081;-84
2023/08/31 04:30:44;;;;;;;2.67;2.33;;;;;;;15.25;100.00;99770.78;5225052;34;33359;-88
2023/08/31 04:33:48;;;;;;;3.80;2.60;;;;;;;15.25;100.00;99769.97;5224090;34;33421;-89
2023/08/31 04:36:51;;;;;;;4.55;2.50;;;;;;;15.34;100.00;99769.44;5238637;33;34043;-91
2023/08/31 04:39:53;;;;;;;2.75;2.55;;;;;;;15.38;100.00;99772.53;5227107;34;33377;-91
2023/08/31 04:42:56;;;;;;;2.90;2.60;;;;;;;15.48;100.00;99783.72;5225949;34;33391;-87
2023/08/31 04:45:59;;;;;;;3.78;2.60;;;;;;;15.64;100.00;99793.97;5224650;34;34249;-86
2023/08/31 04:49:03;;;;;;;2.55;2.35;;;;;;;15.69;100.00;99792.50;5226642;33;34517;-87
2023/08/31 04:52:06;;;;;;;2.80;2.60;;;;;;;15.75;100.00;99789.72;5215422;34;33355;-86
2023/08/31 04:55:11;;;;;;;2.62;2.42;;;;;;;15.91;100.00;99801.00;5239505;34;33437;-86
2023/08/31 04:58:13;;;;;;;2.87;2.60;;;;;;;15.97;100.00;99800.09;5239642;33;33279;-86
2023/08/31 05:01:16;;;;;;;2.95;2.35;;;;;;;16.06;100.00;99805.00;5215516;34;32966;-86
2023/08/31 05:04:19;;;;;;;2.40;2.20;;;;;;;16.13;100.00;99813.06;5215658;34;33736;-86
2023/08/31 05:07:22;;;;;;;2.97;2.30;;;;;;;16.14;100.00;99816.59;5237992;33;33469;-86
2023/08/31 05:10:25;;;;;;;2.25;2.10;;;;;;;16.27;100.00;99821.88;5204202;34;33501;-86
2023/08/31 05:13:28;;;;;;;2.20;2.00;;;;;;;16.30;100.00;99822.25;5226957;34;33123;-86
2023/08/31 05:16:31;;;;;;;4.18;2.42;;;;;;;16.34;100.00;99828.06;5227252;34;34261;-86
2023/08/31 05:19:34;;;;;;;4.68;2.53;;;;;;;16.32;100.00;99833.72;5220203;33;33183;-86
2023/08/31 05:22:37;;;;;;;3.10;2.45;;;;;;;16.45;100.00;99838.16;5243440;33;33395;-86
2023/08/31 05:25:43;;;;;;;2.60;2.40;;;;;;;16.61;100.00;99849.44;5257614;33;33357;-86
2023/08/31 05:28:46;;;;;;;4.03;2.17;;;;;;;16.74;100.00;99839.19;5239579;33;34164;-86
2023/08/31 05:31:52;;;;;;;2.87;2.17;;;;;;;16.87;100.00;99846.34;5200294;34;34508;-86
2023/08/31 05:34:55;;;;;;;2.95;2.75;;;;;;;16.90;100.00;99851.31;5222955;34;33281;-86
2023/08/31 05:37:58;;;;;;;2.22;2.03;;;;;;;17.06;100.00;99851.75;5200570;34;33920;-86
2023/08/31 05:41:09;;;;;;;6.72;2.45;;;;;;;17.10;100.00;99852.91;5219938;34;33456;-86
2023/08/31 05:44:12;;;;;;;2.40;2.10;;;;;;;17.15;100.00;99856.59;5230605;34;33818;-86
2023/08/31 05:47:15;;;;;;;2.83;2.30;;;;;;;17.20;100.00;99864.06;5223089;34;33120;-86
2023/08/31 05:50:18;;;;;;;4.80;2.80;;;;;;;17.11;100.00;99868.16;5211393;34;33326;-86
2023/08/31 05:53:21;;;;;;;3.40;2.97;;;;;;;16.98;100.00;99872.75;5208190;34;34482;-86
2023/08/31 05:56:24;;;;;;;5.55;2.45;;;;;;;16.90;100.00;99867.62;5236929;33;34651;-86
2023/08/31 05:59:27;;;;;;;2.87;2.58;;;;;;;16.78;100.00;99874.94;5216403;34;33411;-86
2023/08/31 06:02:30;;;;;;;3.35;2.78;;;;;;;16.77;100.00;99881.44;5208060;34;33102;-86
2023/08/31 06:05:33;;;;;;;3.60;2.70;;;;;;;16.79;100.00;99882.06;5202859;34;34499;-86
2023/08/31 06:08:36;;;;;;;3.00;2.78;;;;;;;16.78;100.00;99886.63;5214032;34;33264;-86
2023/08/31 06:11:40;;;;;;;5.45;4.03;;;;;;;16.91;100.00;99891.06;5218031;33;33265;-86
2023/08/31 06:14:43;;;;;;;4.40;2.90;;;;;;;17.06;100.00;99889.81;5244338;33;33503;-87
2023/08/31 06:17:46;;;;;;;5.20;2.97;;;;;;;17.37;100.00;99897.66;5224569;34;33417;-86
2023/08/31 06:20:49;;;;;;;2.75;2.55;;;;;;;17.95;100.00;99889.81;5222814;34;33136;-86
2023/08/31 06:23:52;;;;;;;3.40;2.80;;;;;;;18.38;100.00;99904.91;5236026;33;33649;-86
2023/08/31 06:26:56;;;;;;;3.58;2.53;;;;;;;18.87;100.00;99895.28;5214254;33;33479;-86
2023/08/31 06:29:59;;;;;;;4.07;2.60;;;;;;;19.36;100.00;99900.22;5223709;34;33833;-86
2023/08/31 06:33:02;;;;;;;3.05;2.75;;;;;;;19.70;100.00;99910.09;5245164;33;34063;-87
2023/08/31 06:36:05;;;;;;;4.37;2.65;;;;;;;19.96;97.50;99909.66;5223015;33;33578;-86
2023/08/31 06:39:08;;;;;;;4.57;3.00;;;;;;;20.11;97.54;99910.69;5221614;34;33128;-86
2023/08/31 06:42:11;;;;;;;2.60;2.30;;;;;;;20.17;95.71;99912.41;5223852;34;33907;-86
2023/08/31 06:45:13;;;;;;;2.60;2.40;;;;;;;20.00;96.08;99919.81;5223974;34;34023;-89
2023/08/31 06:48:17;;;;;;;2.55;2.35;;;;;;;19.93;97.69;99920.00;5217331;33;33578;-91
2023/08/31 06:51:19;;;;;;;4.55;2.72;;;;;;;19.76;97.99;99921.94;5221456;34;33792;-91
2023/08/31 06:54:26;;;;;;;5.37;2.92;;;;;;;19.61;98.15;99925.22;5239471;33;32072;-87
2023/08/31 06:57:29;;;;;;;3.45;2.65;;;;;;;19.51;99.55;99908.69;5229850;33;34291;-87
2023/08/31 07:00:32;;;;;;;3.00;2.70;;;;;;;19.42;100.00;99915.59;5221985;34;33376;-87
2023/08/31 07:03:35;;;;;;;3.20;2.87;;;;;;;19.38;100.00;99920.75;5215143;33;33648;-86
2023/08/31 07:06:38;;;;;;;2.62;2.33;;;;;;;19.48;100.00;99918.19;5211655;34;33863;-87
2023/08/31 07:09:46;;;;;;;4.95;2.80;;;;;;;19.38;100.00;99930.84;5237602;33;33323;-87
2023/08/31 07:12:49;;;;;;;4.90;2.60;;;;;;;19.45;100.00;99928.75;5231437;34;33444;-87
2023/08/31 07:15:51;;;;;;;3.08;2.80;;;;;;;19.52;99.90;99937.63;5211892;33;33236;-86
2023/08/31 07:18:55;;;;;;;4.40;3.00;;;;;;;19.49;99.93;99940.84;5228763;33;33117;-87
2023/08/31 07:21:59;;;;;;;2.90;2.60;;;;;;;19.39;100.00;99938.78;5220281;33;33806;-86
2023/08/31 07:25:03;;;;;;;2.85;2.45;;;;;;;19.41;100.00;99942.09;5193109;33;33312;-87
2023/08/31 07:28:06;;;;;;;2.80;2.50;;;;;;;19.68;99.48;99946.94;5211611;33;34258;-86
2023/08/31 07:31:09;;;;;;;2.65;2.42;;;;;;;19.92;98.24;99953.06;5221551;33;34218;-86
2023/08/31 07:34:12;;;;;;;2.30;2.10;;;;;;;20.39;96.06;99952.63;5220446;34;34548;-86
2023/08/31 07:37:15;;;;;;;3.50;2.37;;;;;;;20.61;93.34;99960.88;5229544;33;33585;-87
2023/08/31 07:40:18;;;;;;;3.30;2.22;;;;;;;20.72;92.97;99961.84;5213282;34;34566;-86
2023/08/31 07:43:21;;;;;;;2.62;2.25;;;;;;;20.60;91.70;99959.22;5205205;34;33318;-86
2023/08/31 07:46:24;;;;;;;3.33;2.40;;;;;;;20.39;90.89;99958.09;5229915;34;33745;-86
2023/08/31 07:49:28;;;;;;;4.00;2.33;;;;;;;20.42;92.30;99963.06;5236191;33;33275;-86
2023/08/31 07:52:30;;;;;;;2.47;2.28;;;;;;;20.60;90.04;99956.50;5218342;34;33640;-86
2023/08/31 07:55:35;;;;;;;2.60;2.25;;;;;;;20.92;87.91;99956.59;5218311;34;33454;-86
2023/08/31 07:58:38;;;;;;;5.28;2.50;;;;;;;20.95;87.37;99956.09;5218391;33;33279;-86
2023/08/31 08:01:41;;;;;;;2.15;2.00;;;;;;;21.30;87.28;99957.56;5218620;33;32632;-86
2023/08/31 08:04:48;;;;;;;4.57;2.90;;;;;;;21.34;85.74;99953.19;5216903;33;33259;-86
2023/08/31 08:07:50;;;;;;;2.90;2.37;;;;;;;21.22;86.43;99968.97;5228245;33;32858;-86
2023/08/31 08:10:54;;;;;;;4.80;2.53;;;;;;;21.12;85.38;99957.88;5215726;33;33345;-86
2023/08/31 08:13:57;;;;;;;3.87;2.53;;;;;;;21.25;85.62;99968.44;5231764;33;33314;-86
2023/08/31 08:17:01;;;;;;;3.65;3.10;;;;;;;21.35;84.18;99971.25;5228228;34;31680;-86
2023/08/31 08:20:06;;;;;;;6.80;2.75;;;;;;;21.49;83.06;99969.78;5209804;33;33626;-86
2023/08/31 08:23:09;;;;;;;4.97;2.70;;;;;;;21.57;85.66;99975.91;5234840;33;33463;-86
2023/08/31 08:26:12;;;;;;;2.92;2.70;;;;;;;21.66;85.07;99979.81;5234801;34;33504;-86
2023/08/31 08:29:18;;;;;;;4.18;2.60;;;;;;;21.64;84.68;99980.06;5212123;33;34339;-86
2023/08/31 08:32:21;;;;;;;3.97;2.90;;;;;;;21.82;83.77;99986.22;5210528;34;33163;-86
2023/08/31 08:35:24;;;;;;;2.90;2.50;;;;;;;21.71;83.91;99985.34;5218225;34;33120;-86
2023/08/31 08:38:27;;;;;;;6.20;3.03;;;;;;;21.85;82.48;99980.22;5219281;34;34464;-86
2023/08/31 08:41:32;;;;;;;3.10;2.80;;;;;;;22.25;80.55;99987.13;5231641;33;34132;-86
2023/08/31 08:44:37;;;;;;;3.08;2.78;;;;;;;22.58;78.95;99983.19;5233395;33;31647;-86
2023/08/31 08:47:41;;;;;;;3.58;2.60;;;;;;;22.93;78.13;99987.19;5210513;33;33417;-86
2023/08/31 08:50:45;;;;;;;3.22;2.60;;;;;;;23.38;75.74;99993.94;5233302;33;33572;-86
2023/08/31 08:53:50;;;;;;;3.53;2.58;;;;;;;23.88;73.72;99989.62;5232093;33;33008;-90
2023/08/31 08:56:53;;;;;;;2.35;2.15;;;;;;;24.01;72.09;99994.53;5235359;33;32482;-90
2023/08/31 08:59:58;;;;;;;2.90;2.22;;;;;;;24.35;71.63;99997.53;5238388;33;34913;-90
2023/08/31 09:03:03;;;;;;;2.60;2.40;;;;;;;24.38;72.36;99996.97;5241286;33;31802;-87
2023/08/31 09:06:08;;;;;;;3.12;2.28;;;;;;;24.96;67.78;100009.47;5207571;34;33583;-87
2023/08/31 09:09:11;;;;;;;3.20;2.12;;;;;;;24.94;67.19;100011.69;5202770;33;33807;-87
2023/08/31 09:12:13;;;;;;;3.03;2.00;;;;;;;24.80;67.71;100016.97;5216351;34;31890;-87
2023/08/31 09:15:16;;;;;;;2.95;1.95;;;;;;;24.92;66.17;100014.69;5234240;33;33775;-87
2023/08/31 09:18:27;;;;;;;2.30;1.90;;;;;;;25.04;65.99;100020.72;5221172;33;32918;-86
2023/08/31 09:21:40;;;;;;;3.65;2.08;;;;;;;24.99;65.28;100022.69;5235446;33;32992;-86
2023/08/31 09:24:44;;;;;;;2.00;1.90;;;;;;;24.87;65.95;100028.50;5211641;34;32853;-86
2023/08/31 09:27:48;;;;;;;3.42;2.00;;;;;;;24.96;66.15;100029.56;5204203;34;33219;-86
2023/08/31 09:30:53;;;;;;;1.95;1.67;;;;;;;24.82;65.80;100034.84;5219579;34;33346;-86
2023/08/31 09:33:56;;;;;;;3.42;2.00;;;;;;;24.46;65.83;100034.13;5221675;34;33278;-86
2023/08/31 09:37:04;;;;;;;2.58;2.05;;;;;;;24.93;64.88;100034.81;5202753;34;32953;-86
2023/08/31 09:40:08;;;;;;;5.10;1.85;;;;;;;24.66;64.24;100036.03;5222506;34;33655;-86
2023/08/31 09:43:12;;;;;;;2.83;2.00;;;;;;;24.69;63.96;100040.13;5238839;33;32677;-86
2023/08/31 09:46:15;;;;;;;4.10;2.10;;;;;;;24.66;64.81;100041.53;5226711;34;33414;-86
2023/08/31 09:49:22;;;;;;;2.15;1.90;;;;;;;24.71;63.50;100032.41;5219047;34;33254;-85
2023/08/31 09:52:25;;;;;;;3.50;2.22;;;;;;;24.61;63.95;100020.34;5235109;33;33086;-86
2023/08/31 09:55:29;;;;;;;2.35;2.00;;;;;;;25.14;62.43;100028.13;5237458;33;34807;-86
2023/08/31 09:58:33;;;;;;;2.83;1.70;;;;;;;25.27;63.39;100034.94;5229502;33;33955;-86
2023/08/31 10:01:36;;;;;;;3.25;1.92;;;;;;;25.69;60.42;100033.59;5250434;33;33382;-86
2023/08/31 10:04:39;;;;;;;1.70;1.60;;;;;;;25.44;59.37;100040.91;5218197;34;33507;-85
2023/08/31 10:07:43;;;;;;;2.55;1.75;;;;;;;25.17;61.31;100048.78;5212463;34;33366;-86
2023/08/31 10:10:47;;;;;;;1.77;1.67;;;;;;;25.04;60.20;100042.75;5248389;33;33544;-85
2023/08/31 10:13:50;;;;;;;2.00;1.60;;;;;;;24.69;60.46;100051.97;5237723;34;32994;-86
2023/08/31 10:16:55;;;;;;;1.50;1.40;;;;;;;24.71;61.11;100054.44;5222998;34;33376;-86
2023/08/31 10:19:59;;;;;;;1.77;1.67;;;;;;;24.67;62.00;100046.72;5247402;33;34327;-86
2023/08/31 10:23:06;;;;;;;3.10;1.95;;;;;;;24.86;61.11;100057.13;5230854;33;33308;-85
2023/08/31 10:26:08;;;;;;;3.65;1.87;;;;;;;25.32;59.93;100063.31;5211073;34;33402;-85
2023/08/31 10:29:30;;;;;;;2.20;1.70;;;;;;;25.94;57.71;100063.75;5206817;34;33038;-86
2023/08/31 10:32:33;;;;;;;2.90;1.80;;;;;;;25.56;57.99;100070.87;5234584;33;33537;-91
2023/08/31 10:35:56;;;;;;;2.28;2.08;;;;;;;25.37;58.70;100076.25;5224367;34;33993;-91
2023/08/31 10:39:04;;;;;;;1.75;1.58;;;;;;;25.06;59.76;100070.81;5232225;33;33437;-86
2023/08/31 10:42:07;;;;;;;1.73;1.60;;;;;;;25.15;60.79;100068.34;5224235;33;34578;-86
2023/08/31 10:45:10;;;;;;;1.80;1.70;;;;;;;25.67;60.39;100071.66;5226062;33;33485;-86
2023/08/31 10:48:13;;;;;;;2.00;1.80;;;;;;;26.19;59.92;100067.44;5213475;34;33246;-86
2023/08/31 10:51:18;;;;;;;2.08;1.62;;;;;;;25.91;58.44;100078.13;5241299;34;33042;-87
2023/08/31 10:54:22;;;;;;;2.20;1.60;;;;;;;26.42;55.93;100074.13;5228208;34;33384;-86
2023/08/31 10:57:31;;;;;;;1.75;1.65;;;;;;;26.55;56.33;100078.16;5236819;33;32867;-86
2023/08/31 11:01:06;;;;;;;1.77;1.52;;;;;;;26.56;56.71;100083.41;5239217;33;33391;-86
2023/08/31 11:04:10;;;;;;;1.73;1.48;;;;;;;25.76;57.86;100083.72;5187353;33;33183;-86
2023/08/31 11:07:18;;;;;;;3.20;1.85;;;;;;;25.75;58.21;100087.59;5205214;34;33951;-84
2023/08/31 11:10:23;;;;;;;2.30;1.45;;;;;;;25.64;58.56;100086.84;5226236;34;33535;-85
2023/08/31 11:13:27;;;;;;;1.92;1.70;;;;;;;25.83;58.02;100100.81;5237666;33;33348;-84
2023/08/31 11:16:31;;;;;;;4.05;1.77;;;;;;;26.08;55.70;100093.47;5221197;33;33331;-86
2023/08/31 11:19:35;;;;;;;1.83;1.73;;;;;;;25.81;55.94;100097.50;5224925;34;33187;-84
2023/08/31 11:22:41;;;;;;;1.75;1.65;;;;;;;25.51;57.09;100098.50;5238948;33;33501;-85
2023/08/31 11:25:46;;;;;;;3.22;1.70;;;;;;;25.49;56.97;100103.47;5221569;33;32511;-85
2023/08/31 11:28:49;;;;;;;1.70;1.60;;;;;;;25.95;56.04;100098.53;5236636;33;34059;-86
2023/08/31 11:31:52;;;;;;;1.70;1.60;;;;;;;26.41;54.42;100095.41;5212794;34;33313;-86
2023/08/31 11:34:55;;;;;;;1.60;1.50;;;;;;;26.41;54.00;100097.31;5213250;34;33289;-86
2023/08/31 11:37:58;;;;;;;2.75;1.70;;;;;;;26.36;53.56;100105.66;5212814;34;33267;-85
2023/08/31 11:41:01;;;;;;;2.72;1.60;;;;;;;27.63;51.30;100105.37;5239982;33;32945;-85
2023/08/31 11:44:05;;;;;;;1.67;1.55;;;;;;;29.17;49.47;100101.69;5236715;33;33302;-85
2023/08/31 11:47:08;;;;;;;4.30;1.50;;;;;;;29.57;44.36;100083.34;5223774;34;32979;-88
2023/08/31 11:50:13;;;;;;;1.60;1.37;;;;;;;31.00;41.74;100089.22;5226686;34;33616;-89
2023/08/31 11:53:17;;;;;;;2.30;1.73;;;;;;;31.50;40.79;100088.88;5236959;33;34373;-90
2023/08/31 11:56:20;;;;;;;3.10;1.35;;;;;;;31.47;39.93;100089.53;5213135;34;33627;-86
2023/08/31 11:59:23;;;;;;;1.70;1.35;;;;;;;31.66;41.25;100100.38;5212864;34;34133;-86
2023/08/31 12:02:26;;;;;;;1.37;1.27;;;;;;;31.00;40.53;100092.00;5233213;34;34598;-86
2023/08/31 12:05:44;;;;;;;2.35;1.40;;;;;;;30.99;40.61;100095.94;5234760;33;33382;-86
2023/08/31 12:08:47;;;;;;;1.85;1.65;;;;;;;32.25;37.97;100093.16;5241387;33;33419;-85
2023/08/31 12:11:51;;;;;;;2.05;1.60;;;;;;;32.86;36.19;100086.62;5236175;33;34634;-86
2023/08/31 12:14:54;;;;;;;2.50;1.40;;;;;;;33.99;32.76;100088.72;5223636;34;34538;-86
2023/08/31 12:17:57;;;;;;;1.60;1.50;;;;;;;35.28;30.13;100085.66;5241488;33;34200;-85
2023/08/31 12:21:00;;;;;;;2.25;1.30;;;;;;;35.30;29.17;100077.69;5217680;33;33327;-86
2023/08/31 12:24:05;;;;;;;1.35;1.20;;;;;;;34.72;28.95;100090.94;5224219;33;33900;-86
2023/08/31 12:27:09;;;;;;;1.40;1.30;;;;;;;36.12;27.50;100075.75;5245412;33;33274;-85
2023/08/31 12:30:12;;;;;;;1.37;1.27;;;;;;;35.80;26.36;100082.03;5236929;33;33413;-85
2023/08/31 12:33:16;;;;;;;1.70;1.20;;;;;;;36.01;27.51;100075.41;5223533;34;33596;-85
2023/08/31 12:36:19;;;;;;;1.60;1.30;;;;;;;36.31;26.41;100073.09;5232134;34;33133;-85
2023/08/31 12:39:22;;;;;;;1.48;1.27;;;;;;;36.02;26.01;100079.88;5213298;34;33521;-85
2023/08/31 12:42:25;;;;;;;1.48;1.37;;;;;;;37.30;25.07;100079.66;5234990;34;33005;-85
2023/08/31 12:45:28;;;;;;;1.62;1.27;;;;;;;37.62;23.43;100091.63;5225037;34;33459;-84
2023/08/31 12:48:32;;;;;;;1.55;1.40;;;;;;;37.89;23.74;100091.78;5222707;34;33824;-84
2023/08/31 12:51:36;;;;;;;1.90;1.15;;;;;;;38.88;22.27;100092.13;5243362;33;33430;-85
2023/08/31 12:54:39;;;;;;;1.95;1.37;;;;;;;37.23;24.45;100085.88;5236040;33;34523;-85
2023/08/31 12:57:43;;;;;;;1.30;1.20;;;;;;;38.27;23.40;100090.97;5232205;33;32825;-84
2023/08/31 13:00:48;;;;;;;1.95;1.33;;;;;;;39.54;22.23;100081.47;5235197;33;33450;-84
2023/08/31 13:03:52;;;;;;;1.08;1.08;;;;;;;37.82;23.92;100083.19;5237581;34;33816;-84
2023/08/31 13:06:55;;;;;;;1.08;1.00;;;;;;;38.31;23.13;100089.03;5225573;34;33320;-84
2023/08/31 13:10:00;;;;;;;1.35;1.10;;;;;;;37.07;24.15;100082.31;5232807;33;33046;-84
2023/08/31 13:13:04;;;;;;;3.65;1.35;;;;;;;34.23;27.44;100082.44;5242974;33;34393;-84
2023/08/31 13:16:09;;;;;;;2.42;1.20;;;;;;;32.12;30.69;100084.97;5250528;33;34475;-83
2023/08/31 13:19:12;;;;;;;5.35;1.33;;;;;;;31.60;30.83;100077.44;5244534;33;34166;-84
2023/08/31 13:22:16;;;;;;;1.33;1.12;;;;;;;30.66;32.04;100088.75;5254995;33;34210;-84
2023/08/31 13:25:19;;;;;;;1.60;1.50;;;;;;;29.67;34.22;100085.06;5222186;34;34195;-83
2023/08/31 13:28:22;;;;;;;1.52;1.42;;;;;;;28.84;35.46;100085.13;5213725;34;33273;-84
2023/08/31 13:31:25;;;;;;;2.15;1.20;;;;;;;29.39;35.16;100081.50;5225430;34;33642;-84
2023/08/31 13:34:27;;;;;;;1.62;1.17;;;;;;;28.53;36.81;100082.09;5225333;34;33273;-83
2023/08/31 13:37:30;;;;;;;1.08;1.02;;;;;;;29.48;34.70;100079.62;5213748;34;34412;-83
2023/08/31 13:40:36;;;;;;;2.72;1.25;;;;;;;33.08;30.00;100072.41;5213719;33;33364;-84
2023/08/31 13:43:38;;;;;;;1.17;1.10;;;;;;;36.19;25.47;100070.38;5225822;33;33731;-84
2023/08/31 13:46:41;;;;;;;1.83;1.50;;;;;;;36.47;24.95;100065.50;5219226;33;33009;-84
2023/08/31 13:49:44;;;;;;;1.60;1.25;;;;;;;36.80;23.95;100071.97;5231054;33;33281;-89
2023/08/31 13:52:47;;;;;;;1.45;1.35;;;;;;;35.49;25.00;100059.47;5224579;34;33171;-89
2023/08/31 13:55:50;;;;;;;1.25;1.25;;;;;;;32.78;28.77;100081.91;5213718;34;33141;-89
2023/08/31 13:58:52;;;;;;;2.95;1.42;;;;;;;30.79;31.33;100078.69;5237995;34;33235;-88
2023/08/31 14:01:55;;;;;;;1.55;1.45;;;;;;;29.36;33.76;100084.91;5213466;34;32867;-84
2023/08/31 14:04:58;;;;;;;1.75;1.65;;;;;;;28.83;35.43;100085.41;5197240;34;32874;-84
2023/08/31 14:08:03;;;;;;;1.77;1.67;;;;;;;29.11;34.31;100087.09;5207560;34;33969;-86
2023/08/31 14:11:06;;;;;;;2.00;1.70;;;;;;;29.07;34.54;100096.31;5221542;34;33357;-84
2023/08/31 14:14:10;;;;;;;2.83;1.60;;;;;;;29.33;34.37;100091.06;5208308;34;33283;-83
2023/08/31 14:17:13;;;;;;;2.12;1.90;;;;;;;29.33;34.47;100093.84;5197095;34;33444;-85
2023/08/31 14:20:16;;;;;;;1.65;1.55;;;;;;;28.44;35.75;100092.25;5211001;34;33014;-86
2023/08/31 14:23:19;;;;;;;1.67;1.52;;;;;;;28.13;36.76;100095.47;5207439;34;33963;-85
2023/08/31 14:26:23;;;;;;;1.87;1.60;;;;;;;27.94;37.62;100092.75;5219047;34;33430;-85
2023/08/31 14:29:26;;;;;;;1.70;1.60;;;;;;;27.63;38.11;100097.06;5207934;34;33059;-85
2023/08/31 14:32:29;;;;;;;1.80;1.70;;;;;;;27.13;38.67;100100.19;5218993;34;34538;-86
2023/08/31 14:35:36;;;;;;;2.40;2.03;;;;;;;26.86;39.55;100103.53;5208044;34;33326;-85
2023/08/31 14:38:39;;;;;;;2.00;1.80;;;;;;;27.01;40.55;100108.06;5221512;34;33272;-85
2023/08/31 14:41:42;;;;;;;1.55;1.45;;;;;;;26.66;40.99;100110.09;5208802;34;33039;-85
2023/08/31 14:44:45;;;;;;;1.83;1.73;;;;;;;26.58;41.38;100107.97;5208147;34;33345;-85
2023/08/31 14:47:48;;;;;;;1.80;1.70;;;;;;;25.96;42.44;100119.47;5208596;34;34479;-83
2023/08/31 14:50:51;;;;;;;1.70;1.60;;;;;;;25.99;41.53;100112.56;5207105;34;33387;-83
2023/08/31 14:53:54;;;;;;;2.75;2.03;;;;;;;25.75;41.68;100127.03;5207155;34;33974;-84
2023/08/31 14:56:56;;;;;;;1.90;1.70;;;;;;;25.75;41.98;100123.44;5207318;34;33495;-84
2023/08/31 14:59:59;;;;;;;2.30;1.70;;;;;;;25.56;42.10;100120.50;5207831;34;33363;-84
2023/08/31 15:03:05;;;;;;;2.42;1.62;;;;;;;25.46;42.47;100118.63;5224774;34;33444;-83
2023/08/31 15:06:08;;;;;;;5.07;1.67;;;;;;;25.45;43.20;100119.75;5227705;34;33211;-84
2023/08/31 15:09:11;;;;;;;2.25;1.92;;;;;;;25.10;44.41;100124.28;5237605;34;34151;-83
2023/08/31 15:12:14;;;;;;;3.05;1.70;;;;;;;25.02;46.14;100122.09;5224338;34;33071;-84
2023/08/31 15:15:17;;;;;;;1.98;1.77;;;;;;;24.93;45.35;100125.72;5224224;34;33654;-84
2023/08/31 15:18:20;;;;;;;1.73;1.62;;;;;;;24.54;44.99;100124.41;5216054;33;271019;-84
2023/08/31 15:21:23;;;;;;;2.12;1.90;;;;;;;24.51;44.91;100127.72;5211659;34;33102;-84
2023/08/31 15:24:26;;;;;;;1.98;1.87;;;;;;;24.31;45.37;100128.50;5212633;34;33887;-84
2023/08/31 15:27:29;;;;;;;1.90;1.80;;;;;;;24.28;46.40;100130.97;5213047;34;33088;-84
2023/08/31 15:30:32;;;;;;;1.83;1.73;;;;;;;24.16;46.75;100131.22;5236701;34;33553;-84
2023/08/31 15:33:35;;;;;;;2.37;1.75;;;;;;;24.10;47.10;100141.44;5223633;34;32995;-84
2023/08/31 15:36:41;;;;;;;2.37;2.17;;;;;;;24.03;46.81;100140.84;5236599;34;33563;-84
2023/08/31 15:39:43;;;;;;;2.90;1.87;;;;;;;23.99;48.38;100151.56;5223755;34;33010;-85
2023/08/31 15:42:46;;;;;;;2.10;1.90;;;;;;;24.03;47.33;100145.53;5212603;34;33501;-84
2023/08/31 15:45:49;;;;;;;2.15;1.75;;;;;;;23.94;47.21;100146.06;5212117;34;33351;-84
2023/08/31 15:48:52;;;;;;;3.92;2.05;;;;;;;24.01;46.99;100148.53;5212165;34;34391;-84
2023/08/31 15:51:55;;;;;;;2.40;2.08;;;;;;;23.84;48.25;100153.44;5236216;34;35024;-84
2023/08/31 15:55:00;;;;;;;3.80;2.10;;;;;;;23.73;48.07;100147.12;5224034;34;33052;-84
